Aviation Digital Data Service (ADDS)

Output produced by METARs form (0932 UTC 17 November 2018)
found at http://www.aviationweather.gov/metar/data/
 
KYIP 170900Z 1709/1806 27008KT P6SM OVC030 
     FM171600 25008KT 6SM -SN BR OVC025 
     FM172100 29006KT P6SM OVC030 
     FM180000 33005KT P6SM BKN035 OVC045
       
KYKM 170820Z 1708/1806 34006KT P6SM SCT050 BKN080 
     FM171200 28005KT P6SM SKC 
     FM171800 05005KT P6SM SKC 
     FM180300 26004KT P6SM SKC
       
KYNG 170907Z 1709/1806 25008KT 5SM BR SCT009 OVC030 
     FM171300 25006KT P6SM OVC020 
     FM171900 25006KT P6SM VCSH OVC015 
     FM172200 30005KT 5SM -SN BR OVC015 
     FM180400 01005KT P6SM OVC010